createdAt,value
2018-10-18T00:02:20.659Z,8.30
2018-10-18T00:07:24.031Z,8.20
2018-10-18T00:12:27.496Z,8.20
2018-10-18T00:17:36.372Z,8.20
2018-10-18T00:22:39.749Z,8.10
2018-10-18T00:27:43.155Z,8.10
2018-10-18T00:32:46.572Z,8.10
2018-10-18T00:37:50.020Z,8.00
2018-10-18T00:42:53.380Z,8.00
2018-10-18T00:47:56.820Z,8.00
2018-10-18T00:53:00.257Z,8.00
2018-10-18T00:58:03.668Z,7.90
2018-10-18T01:03:07.040Z,7.80
2018-10-18T01:08:10.522Z,7.80
2018-10-18T01:13:13.827Z,7.80
2018-10-18T01:18:17.237Z,7.70
2018-10-18T01:23:20.639Z,7.70
2018-10-18T01:28:24.011Z,7.70
2018-10-18T01:33:27.580Z,7.70
2018-10-18T01:38:30.964Z,7.60
2018-10-18T01:43:34.343Z,7.50
2018-10-18T01:48:37.851Z,7.50
2018-10-18T01:53:41.485Z,7.50
2018-10-18T01:58:44.863Z,7.50
2018-10-18T02:03:48.248Z,7.40
2018-10-18T02:08:51.622Z,7.40
2018-10-18T02:13:54.994Z,7.40
2018-10-18T02:18:58.395Z,7.30
2018-10-18T02:24:01.900Z,7.30
2018-10-18T02:29:05.394Z,7.30
2018-10-18T02:34:08.785Z,7.20
2018-10-18T02:39:12.160Z,7.20
2018-10-18T02:44:15.572Z,7.20
2018-10-18T02:49:18.983Z,7.10
2018-10-18T02:54:22.388Z,7.10
2018-10-18T02:59:25.855Z,7.10
2018-10-18T03:04:29.244Z,7.10
2018-10-18T03:09:32.625Z,7.00
2018-10-18T03:14:36.015Z,7.00
2018-10-18T03:19:39.415Z,7.00
2018-10-18T03:24:42.795Z,6.90
2018-10-18T03:29:46.163Z,6.90
2018-10-18T03:34:49.555Z,6.90
2018-10-18T03:39:53.005Z,6.90
2018-10-18T03:44:56.424Z,6.80
2018-10-18T03:49:59.795Z,6.80
2018-10-18T03:55:03.171Z,6.80
2018-10-18T04:00:07.356Z,6.80
2018-10-18T04:05:11.170Z,6.80
2018-10-18T04:10:14.559Z,6.70
2018-10-18T04:15:17.974Z,6.70
2018-10-18T04:20:21.354Z,6.70
2018-10-18T04:25:24.818Z,6.60
2018-10-18T04:30:28.177Z,6.60
2018-10-18T04:35:31.554Z,6.60
2018-10-18T04:40:35.003Z,6.60
2018-10-18T04:45:38.380Z,6.50
2018-10-18T04:50:41.875Z,6.50
2018-10-18T04:55:45.353Z,6.50
2018-10-18T05:00:48.754Z,6.40
2018-10-18T05:05:57.973Z,6.40
2018-10-18T05:11:01.368Z,6.40
2018-10-18T05:16:05.392Z,6.40
2018-10-18T05:21:08.827Z,6.40
2018-10-18T05:26:12.204Z,6.30
2018-10-18T05:31:15.655Z,6.30
2018-10-18T05:36:19.116Z,6.30
2018-10-18T05:41:22.478Z,6.30
2018-10-18T05:46:25.898Z,6.30
2018-10-18T05:51:29.283Z,6.20
2018-10-18T05:56:32.695Z,6.30
2018-10-18T06:01:36.118Z,6.30
2018-10-18T06:06:39.557Z,6.30
2018-10-18T06:11:42.956Z,6.30
2018-10-18T06:16:46.331Z,6.40
2018-10-18T06:21:49.914Z,6.40
2018-10-18T06:26:53.352Z,6.50
2018-10-18T06:31:56.816Z,6.50
2018-10-18T06:37:00.221Z,6.60
2018-10-18T06:42:03.604Z,6.70
2018-10-18T06:47:07.140Z,6.80
2018-10-18T06:52:10.457Z,6.80
2018-10-18T06:57:13.936Z,7.00
2018-10-18T07:02:17.418Z,7.10
2018-10-18T07:07:20.883Z,7.20
2018-10-18T07:12:24.324Z,7.40
2018-10-18T07:17:27.716Z,7.50
2018-10-18T07:22:31.152Z,7.70
2018-10-18T07:27:34.596Z,7.90
2018-10-18T07:32:38.019Z,8.00
2018-10-18T07:37:41.407Z,8.20
2018-10-18T07:42:44.888Z,8.50
2018-10-18T07:47:48.271Z,8.80
2018-10-18T07:52:51.684Z,9.00
2018-10-18T07:57:55.268Z,9.30
2018-10-18T08:02:58.689Z,9.70
2018-10-18T08:08:02.111Z,10.00
2018-10-18T08:13:05.519Z,10.30
2018-10-18T08:18:08.924Z,10.60
2018-10-18T08:23:12.311Z,10.80
2018-10-18T08:28:15.691Z,11.10
2018-10-18T08:33:19.080Z,11.30
2018-10-18T08:38:23.142Z,11.60
2018-10-18T08:43:26.527Z,12.00
2018-10-18T08:48:29.919Z,12.30
2018-10-18T08:53:33.348Z,12.50
2018-10-18T08:58:36.811Z,12.80
2018-10-18T09:03:40.548Z,13.30
2018-10-18T09:08:44.011Z,13.50
2018-10-18T09:13:47.407Z,13.80
2018-10-18T09:18:50.835Z,14.00
2018-10-18T09:23:54.413Z,14.10
2018-10-18T09:28:57.764Z,14.40
2018-10-18T09:34:01.151Z,14.50
2018-10-18T09:39:05.994Z,14.60
2018-10-18T09:44:09.566Z,14.70
2018-10-18T09:49:13.041Z,15.10
2018-10-18T09:54:16.456Z,15.40
2018-10-18T09:59:19.847Z,15.70
2018-10-18T10:04:23.323Z,15.70
2018-10-18T10:09:26.815Z,15.80
2018-10-18T10:14:30.198Z,15.80
2018-10-18T10:32:12.392Z,16.90
2018-10-18T10:37:16.010Z,17.30
2018-10-18T10:42:19.497Z,17.50
2018-10-18T10:47:22.860Z,17.60
2018-10-18T10:52:26.539Z,17.80
2018-10-18T10:57:30.864Z,17.90
2018-10-18T11:02:34.764Z,17.80
2018-10-18T11:07:38.242Z,17.90
2018-10-18T11:12:41.740Z,18.10
2018-10-18T11:17:45.168Z,18.30
2018-10-18T11:22:51.344Z,18.20
2018-10-18T11:27:54.796Z,18.20
2018-10-18T11:32:58.250Z,18.40
2018-10-18T11:38:01.725Z,18.80
2018-10-18T11:43:05.332Z,18.80
2018-10-18T11:48:10.102Z,18.90
2018-10-18T11:53:13.463Z,18.90
2018-10-18T11:58:17.047Z,19.20
2018-10-18T12:03:20.507Z,19.10
2018-10-18T12:08:23.987Z,19.30
2018-10-18T12:13:27.514Z,18.90
2018-10-18T12:18:31.034Z,18.70
2018-10-18T12:23:34.552Z,19.00
2018-10-18T12:28:38.052Z,19.10
2018-10-18T12:33:41.889Z,19.10
2018-10-18T12:38:45.388Z,19.20
2018-10-18T12:43:48.801Z,19.30
2018-10-18T12:48:52.231Z,18.90
2018-10-18T12:53:55.725Z,19.00
2018-10-18T12:58:59.153Z,19.00
2018-10-18T13:04:02.544Z,18.70
2018-10-18T13:09:08.694Z,18.70
2018-10-18T13:14:12.176Z,18.80
2018-10-18T13:19:15.889Z,18.70
2018-10-18T13:24:19.607Z,18.60
2018-10-18T13:29:22.856Z,18.50
2018-10-18T13:34:26.235Z,18.30
2018-10-18T13:39:29.709Z,18.10
2018-10-18T13:44:33.218Z,17.80
2018-10-18T13:49:36.804Z,17.50
2018-10-18T13:54:40.250Z,17.20
2018-10-18T13:59:55.184Z,16.90
2018-10-18T14:04:58.628Z,16.80
2018-10-18T14:10:03.133Z,16.60
2018-10-18T14:15:07.380Z,16.50
2018-10-18T14:20:10.974Z,16.30
2018-10-18T14:25:14.377Z,16.10
2018-10-18T14:30:17.878Z,15.80
2018-10-18T14:35:21.337Z,15.70
2018-10-18T14:40:24.684Z,15.60
2018-10-18T14:45:28.105Z,15.60
2018-10-18T14:50:31.882Z,15.50
2018-10-18T14:55:35.123Z,15.40
2018-10-18T15:00:38.584Z,15.40
2018-10-18T15:05:42.005Z,15.30
2018-10-18T15:10:45.457Z,15.20
2018-10-18T15:15:49.022Z,15.10
2018-10-18T15:20:52.460Z,15.10
2018-10-18T15:25:56.016Z,15.00
2018-10-18T15:30:59.368Z,15.00
2018-10-18T15:36:02.794Z,15.00
2018-10-18T15:41:06.314Z,15.00
2018-10-18T15:46:09.704Z,14.90
2018-10-18T15:51:13.397Z,14.90
2018-10-18T15:56:16.968Z,14.90
2018-10-18T16:01:20.437Z,14.90
2018-10-18T16:06:23.945Z,14.90
2018-10-18T16:11:27.492Z,14.80
2018-10-18T16:16:30.896Z,14.80
2018-10-18T16:21:34.355Z,14.80
2018-10-18T16:26:37.942Z,14.80
2018-10-18T16:31:41.312Z,14.70
2018-10-18T16:36:44.716Z,14.70
2018-10-18T16:41:48.250Z,14.60
2018-10-18T16:46:51.744Z,14.70
2018-10-18T16:51:55.231Z,14.70
2018-10-18T16:56:58.590Z,14.60
2018-10-18T17:02:02.170Z,14.70
2018-10-18T17:07:05.688Z,14.60
2018-10-18T17:12:09.156Z,14.60
2018-10-18T17:17:12.524Z,14.60
2018-10-18T17:22:16.011Z,14.50
2018-10-18T17:27:19.523Z,14.60
2018-10-18T17:32:22.984Z,14.60
2018-10-18T17:37:26.351Z,14.50
2018-10-18T17:42:29.763Z,14.50
2018-10-18T17:47:33.444Z,14.50
2018-10-18T17:52:36.854Z,14.40
2018-10-18T17:57:40.303Z,14.40
2018-10-18T18:02:43.768Z,14.40
2018-10-18T18:07:47.171Z,14.40
2018-10-18T18:12:50.559Z,14.40
2018-10-18T18:17:53.942Z,14.30
2018-10-18T18:22:57.384Z,14.30
2018-10-18T18:28:00.770Z,14.30
2018-10-18T18:33:04.266Z,14.20
2018-10-18T18:38:07.703Z,14.20
2018-10-18T18:43:11.091Z,14.20
2018-10-18T18:48:14.475Z,14.20
2018-10-18T18:53:17.986Z,14.10
2018-10-18T18:58:21.431Z,14.10
2018-10-18T19:03:24.949Z,14.10
2018-10-18T19:08:28.366Z,14.10
2018-10-18T19:13:31.994Z,14.00
2018-10-18T19:18:35.207Z,14.10
2018-10-18T19:23:38.633Z,14.00
2018-10-18T19:28:42.221Z,14.00
2018-10-18T19:33:45.568Z,14.00
2018-10-18T19:38:49.429Z,14.00
2018-10-18T19:43:52.942Z,14.00
2018-10-18T19:48:56.385Z,13.90
2018-10-18T19:53:59.812Z,13.90
2018-10-18T19:59:03.216Z,13.90
2018-10-18T20:04:06.674Z,13.90
2018-10-18T20:09:11.761Z,13.90
2018-10-18T20:14:15.212Z,13.90
2018-10-18T20:19:18.597Z,13.90
2018-10-18T20:24:23.958Z,13.90
2018-10-18T20:29:27.453Z,13.80
2018-10-18T20:34:30.883Z,13.80
2018-10-18T20:39:34.433Z,13.80
2018-10-18T20:44:37.917Z,13.80
2018-10-18T20:49:41.314Z,13.80
2018-10-18T20:54:44.828Z,13.70
2018-10-18T20:59:48.253Z,13.70
2018-10-18T21:04:51.693Z,13.70
2018-10-18T21:09:55.083Z,13.60
2018-10-18T21:14:58.475Z,13.60
2018-10-18T21:20:01.866Z,13.60
2018-10-18T21:25:05.394Z,13.60
2018-10-18T21:30:08.988Z,13.50
2018-10-18T21:35:12.409Z,13.50
2018-10-18T21:40:15.852Z,13.50
2018-10-18T21:45:19.325Z,13.40
2018-10-18T21:50:22.711Z,13.40
2018-10-18T21:55:26.175Z,13.40
2018-10-18T22:00:30.355Z,13.30
2018-10-18T22:05:37.719Z,13.40
2018-10-18T22:10:41.347Z,13.30
2018-10-18T22:15:44.750Z,13.30
2018-10-18T22:20:48.128Z,13.20
2018-10-18T22:25:51.511Z,13.20
2018-10-18T22:30:54.895Z,13.20
2018-10-18T22:35:58.284Z,13.20
2018-10-18T22:41:01.780Z,13.20
2018-10-18T22:46:05.335Z,13.10
2018-10-18T22:51:08.730Z,13.10
2018-10-18T22:56:12.148Z,13.10
2018-10-18T23:01:15.571Z,13.00
2018-10-18T23:06:18.999Z,13.00
2018-10-18T23:11:22.386Z,12.90
2018-10-18T23:16:25.759Z,12.90
2018-10-18T23:21:29.148Z,12.80
2018-10-18T23:26:32.536Z,12.90
2018-10-18T23:31:35.955Z,12.90
2018-10-18T23:36:39.419Z,12.80
2018-10-18T23:41:42.804Z,12.80
2018-10-18T23:46:46.192Z,12.70
2018-10-18T23:51:49.652Z,12.70
2018-10-18T23:56:53.095Z,12.60
